Time;durP1;ratioP1;P1;durP2;ratioP2;P2;SDS_P1;SDS_P2;PMS_P1;PMS_P2;Temp;Humidity;BMP_temperature;BMP_pressure;BME280_temperature;BME280_humidity;BME280_pressure;Samples;Min_cycle;Max_cycle;Signal;HPM_P1;HPM_P2
2023/04/11 00:00:15;;;;;;;;;;;;;;;25.41;40.74;96676.27;617553;229;66757;-60
2023/04/11 00:02:43;;;;;;;;;;;;;;;25.41;42.60;96675.48;619102;227;66916;-60
2023/04/11 00:05:11;;;;;;;;;;;;;;;25.40;42.41;96669.31;619127;229;63062;-60
2023/04/11 00:07:38;;;;;;;;;;;;;;;25.39;42.28;96667.70;619548;228;64635;-60
2023/04/11 00:10:07;;;;;;;;;;;;;;;25.38;43.43;96671.50;618334;228;64733;-61
2023/04/11 00:12:34;;;;;;;;;;;;;;;25.38;42.79;96666.12;619792;227;62994;-60
2023/04/11 00:15:02;;;;;;;;;;;;;;;25.37;43.13;96669.93;619057;228;64717;-60
2023/04/11 00:17:30;;;;;;;;;;;;;;;25.36;41.63;96662.16;619128;229;66922;-60
2023/04/11 00:20:06;;;;;;;;;;;;;;;25.37;41.82;96666.42;619085;229;64981;-60
2023/04/11 00:22:27;;;;;;;;;;;;;;;25.35;39.77;96664.05;618714;229;67019;-60
2023/04/11 00:24:55;;;;;;;;;;;;;;;25.35;42.78;96660.58;617425;228;66911;-60
2023/04/11 00:27:22;;;;;;;;;;;;;;;25.35;43.99;96660.58;618481;227;64846;-60
2023/04/11 00:29:51;;;;;;;;;;;;;;;25.34;42.47;96657.06;618650;228;66830;-60
2023/04/11 00:32:19;;;;;;;;;;;;;;;25.32;42.26;96648.53;619490;228;66439;-60
2023/04/11 00:34:46;;;;;;;;;;;;;;;25.32;41.92;96659.30;617446;228;64887;-61
2023/04/11 00:37:14;;;;;;;;;;;;;;;25.32;42.55;96661.98;619108;229;64597;-61
2023/04/11 00:39:41;;;;;;;;;;;;;;;25.30;43.41;96650.73;619824;227;64938;-61
2023/04/11 00:42:09;;;;;;;;;;;;;;;25.31;43.45;96654.20;619597;228;62725;-61
2023/04/11 00:44:39;;;;;;;;;;;;;;;25.30;43.90;96642.66;619128;229;66751;-61
2023/04/11 00:47:06;;;;;;;;;;;;;;;25.28;43.68;96644.86;611241;228;66715;-61
2023/04/11 00:49:34;;;;;;;;;;;;;;;25.28;40.89;96642.17;618396;229;65822;-61
2023/04/11 00:52:02;;;;;;;;;;;;;;;25.27;41.38;96645.19;618915;228;66811;-61
2023/04/11 00:54:33;;;;;;;;;;;;;;;25.27;41.60;96637.91;619308;228;66808;-61
2023/04/11 00:57:01;;;;;;;;;;;;;;;25.27;43.62;96639.80;619068;229;66031;-61
2023/04/11 00:59:29;;;;;;;;;;;;;;;25.25;43.54;96629.34;619028;229;67457;-61
2023/04/11 01:01:58;;;;;;;;;;;;;;;25.23;42.64;96626.16;619112;229;64655;-61
2023/04/11 01:04:28;;;;;;;;;;;;;;;25.24;44.68;96635.83;619078;229;63011;-61
2023/04/11 01:06:57;;;;;;;;;;;;;;;25.23;42.54;96628.84;618900;228;63914;-61
2023/04/11 01:09:27;;;;;;;;;;;;;;;25.22;44.29;96632.65;617554;228;64513;-61
2023/04/11 01:11:55;;;;;;;;;;;;;;;25.21;43.79;96625.69;619660;228;65019;-62
2023/04/11 01:14:24;;;;;;;;;;;;;;;25.21;43.51;96631.86;619431;228;64778;-61
2023/04/11 01:16:51;;;;;;;;;;;;;;;25.19;41.96;96633.27;617423;228;67553;-61
2023/04/11 01:19:20;;;;;;;;;;;;;;;25.19;42.90;96638.64;620053;228;64995;-61
2023/04/11 01:21:49;;;;;;;;;;;;;;;25.19;44.20;96627.89;618158;229;66666;-61
2023/04/11 01:24:17;;;;;;;;;;;;;;;25.18;42.61;96629.79;618507;228;64835;-61
2023/04/11 01:26:45;;;;;;;;;;;;;;;25.17;43.34;96630.88;619858;228;63800;-61
2023/04/11 01:29:15;;;;;;;;;;;;;;;25.16;42.05;96623.13;617768;228;64285;-62
2023/04/11 01:31:42;;;;;;;;;;;;;;;25.15;40.43;96616.14;619597;228;66802;-60
2023/04/11 01:34:13;;;;;;;;;;;;;;;25.15;42.92;96627.69;618393;228;65138;-60
2023/04/11 01:36:43;;;;;;;;;;;;;;;25.15;43.04;96627.69;619678;228;66944;-61
2023/04/11 01:39:11;;;;;;;;;;;;;;;25.14;41.54;96627.98;618769;229;64727;-61
2023/04/11 01:41:39;;;;;;;;;;;;;;;25.13;42.37;96629.09;618135;227;62732;-61
2023/04/11 01:44:07;;;;;;;;;;;;;;;25.13;43.08;96621.81;619158;229;67731;-60
2023/04/11 01:46:35;;;;;;;;;;;;;;;25.11;42.41;96621.32;620139;227;66320;-60
2023/04/11 01:49:03;;;;;;;;;;;;;;;25.11;42.10;96618.63;617649;228;63907;-60
2023/04/11 01:51:31;;;;;;;;;;;;;;;25.11;40.88;96610.56;619199;228;67782;-60
2023/04/11 01:53:59;;;;;;;;;;;;;;;25.11;42.81;96615.94;619187;227;67146;-60
2023/04/11 01:56:27;;;;;;;;;;;;;;;25.09;41.78;96606.59;619178;229;64897;-60
2023/04/11 01:58:57;;;;;;;;;;;;;;;25.09;41.14;96611.97;618890;229;66861;-60
2023/04/11 02:01:24;;;;;;;;;;;;;;;25.08;41.84;96605.80;617790;228;67510;-60
2023/04/11 02:03:51;;;;;;;;;;;;;;;25.08;43.57;96608.50;618372;228;66004;-60
2023/04/11 02:06:19;;;;;;;;;;;;;;;25.07;42.70;96608.79;618753;227;66892;-60
2023/04/11 02:08:47;;;;;;;;;;;;;;;25.06;40.68;96601.83;619975;228;66670;-60
2023/04/11 02:11:14;;;;;;;;;;;;;;;25.06;43.77;96601.83;619167;229;64869;-60
2023/04/11 02:13:41;;;;;;;;;;;;;;;25.05;41.73;96597.57;619146;229;64283;-61
2023/04/11 02:16:13;;;;;;;;;;;;;;;25.03;42.97;96598.66;618560;228;66717;-61
2023/04/11 02:18:40;;;;;;;;;;;;;;;25.02;40.94;96597.08;618883;227;64911;-60
2023/04/11 02:21:08;;;;;;;;;;;;;;;25.03;42.57;96587.11;619104;229;67050;-60
2023/04/11 02:23:35;;;;;;;;;;;;;;;25.02;43.30;96585.53;619141;229;66768;-60
2023/04/11 02:26:03;;;;;;;;;;;;;;;25.00;42.10;96583.14;619109;229;65727;-60
2023/04/11 02:28:31;;;;;;;;;;;;;;;25.02;42.84;96591.70;619999;228;66981;-61
2023/04/11 02:30:58;;;;;;;;;;;;;;;25.00;42.66;96585.83;617479;228;66692;-61
2023/04/11 02:33:27;;;;;;;;;;;;;;;24.99;43.30;96581.56;619459;228;65115;-62
2023/04/11 02:35:54;;;;;;;;;;;;;;;24.99;41.86;96567.30;618753;228;66520;-61
2023/04/11 02:38:22;;;;;;;;;;;;;;;24.98;41.32;96573.80;618646;228;66478;-61
2023/04/11 02:40:51;;;;;;;;;;;;;;;24.98;42.31;96577.27;620120;227;62500;-61
2023/04/11 02:43:18;;;;;;;;;;;;;;;24.97;42.14;96574.91;619118;229;66573;-61
2023/04/11 02:45:46;;;;;;;;;;;;;;;24.97;42.11;96572.22;618563;228;66447;-61
2023/04/11 02:48:13;;;;;;;;;;;;;;;24.96;44.30;96568.74;617680;229;64979;-61
2023/04/11 02:50:43;;;;;;;;;;;;;;;24.95;43.33;96572.52;618895;228;43809;-62
2023/04/11 02:53:11;;;;;;;;;;;;;;;24.94;42.18;96564.77;609402;231;67075;-61
2023/04/11 02:55:40;;;;;;;;;;;;;;;24.93;43.62;96566.64;616521;228;42479;-61
2023/04/11 02:58:08;;;;;;;;;;;;;;;24.92;43.77;96556.21;619248;228;66811;-61
2023/04/11 03:00:36;;;;;;;;;;;;;;;24.91;42.25;96563.48;619160;229;66452;-61
2023/04/11 03:03:05;;;;;;;;;;;;;;;24.90;40.99;96553.82;611110;228;65925;-61
2023/04/11 03:05:35;;;;;;;;;;;;;;;24.90;42.86;96545.75;619459;228;43935;-61
2023/04/11 03:08:02;;;;;;;;;;;;;;;24.88;42.94;96545.30;618354;228;67429;-61
2023/04/11 03:10:31;;;;;;;;;;;;;;;24.88;41.57;96547.98;619122;229;65811;-62
2023/04/11 03:12:59;;;;;;;;;;;;;;;24.88;42.42;96547.98;619097;229;66803;-61
2023/04/11 03:15:26;;;;;;;;;;;;;;;24.87;42.64;96553.65;619170;227;64333;-60
2023/04/11 03:17:54;;;;;;;;;;;;;;;24.86;44.19;96552.86;618448;229;62484;-61
2023/04/11 03:20:22;;;;;;;;;;;;;;;24.84;42.26;96544.30;619582;228;66890;-61
2023/04/11 03:22:52;;;;;;;;;;;;;;;24.84;41.56;96549.68;619006;227;44134;-61
2023/04/11 03:25:20;;;;;;;;;;;;;;;24.83;40.80;96555.34;617961;227;63735;-60
2023/04/11 03:27:49;;;;;;;;;;;;;;;24.84;43.16;96549.68;619833;228;63984;-60
2023/04/11 03:30:16;;;;;;;;;;;;;;;24.82;41.81;96549.19;611819;229;67947;-60
2023/04/11 03:32:45;;;;;;;;;;;;;;;24.82;40.45;96538.44;616720;228;44006;-60
2023/04/11 03:35:14;;;;;;;;;;;;;;;24.81;43.34;96539.55;617911;228;68325;-61
2023/04/11 03:37:43;;;;;;;;;;;;;;;24.81;43.43;96536.86;618874;228;44142;-61
2023/04/11 03:40:11;;;;;;;;;;;;;;;24.81;44.76;96536.86;619177;228;64693;-61
2023/04/11 03:42:40;;;;;;;;;;;;;;;24.80;42.66;96537.97;617606;228;67335;-61
2023/04/11 03:45:09;;;;;;;;;;;;;;;24.77;41.97;96528.62;612926;229;66148;-61
2023/04/11 03:47:37;;;;;;;;;;;;;;;24.77;42.87;96528.62;614039;228;62932;-61
2023/04/11 03:50:05;;;;;;;;;;;;;;;24.78;43.48;96532.89;618613;228;67288;-61
2023/04/11 03:52:35;;;;;;;;;;;;;;;24.77;41.65;96531.31;618277;228;43395;-60
2023/04/11 03:55:05;;;;;;;;;;;;;;;24.76;42.94;96528.92;619078;227;65398;-62
2023/04/11 03:57:35;;;;;;;;;;;;;;;24.75;43.34;96530.03;619046;228;65118;-61
2023/04/11 04:00:05;;;;;;;;;;;;;;;24.75;43.32;96530.82;619776;228;67146;-61
2023/04/11 04:02:34;;;;;;;;;;;;;;;24.74;43.63;96526.53;619090;228;42555;-61
2023/04/11 04:05:04;;;;;;;;;;;;;;;24.73;44.35;96535.70;618133;227;44541;-61
2023/04/11 04:07:34;;;;;;;;;;;;;;;24.72;43.50;96533.34;619005;227;49479;-62
2023/04/11 04:10:03;;;;;;;;;;;;;;;24.72;43.10;96530.65;616398;229;45092;-62
2023/04/11 04:12:32;;;;;;;;;;;;;;;24.72;43.06;96525.28;619151;227;67886;-62
2023/04/11 04:15:13;;;;;;;;;;;;;;;24.71;44.42;96529.83;619402;227;48736;-61
2023/04/11 04:17:41;;;;;;;;;;;;;;;24.70;43.11;96520.20;617840;228;65652;-61
2023/04/11 04:20:11;;;;;;;;;;;;;;;24.69;43.53;96533.92;619010;227;44177;-62
2023/04/11 04:22:41;;;;;;;;;;;;;;;24.69;42.72;96528.55;617336;229;67465;-63
2023/04/11 04:25:11;;;;;;;;;;;;;;;24.69;44.20;96517.80;607431;228;65984;-62
2023/04/11 04:27:43;;;;;;;;;;;;;;;24.68;43.99;96519.70;621072;227;67133;-62
2023/04/11 04:30:14;;;;;;;;;;;;;;;24.67;43.79;96525.40;621462;226;66850;-62
2023/04/11 04:32:44;;;;;;;;;;;;;;;24.67;42.08;96525.40;611836;228;42604;-61
2023/04/11 04:35:15;;;;;;;;;;;;;;;24.66;41.64;96511.14;616875;228;67658;-62
2023/04/11 04:37:48;;;;;;;;;;;;;;;24.67;43.63;96510.06;620521;228;67024;-62
2023/04/11 04:40:19;;;;;;;;;;;;;;;24.69;44.52;96515.11;619022;227;46517;-61
2023/04/11 04:42:48;;;;;;;;;;;;;;;24.68;43.69;96508.17;616977;228;44160;-61
2023/04/11 04:45:15;;;;;;;;;;;;;;;24.68;43.46;96508.17;620011;228;67085;-61
2023/04/11 04:47:43;;;;;;;;;;;;;;;24.68;44.40;96505.48;618207;229;65696;-62
2023/04/11 04:50:11;;;;;;;;;;;;;;;24.68;43.86;96500.89;618271;228;64863;-61
2023/04/11 04:52:39;;;;;;;;;;;;;;;24.68;44.62;96490.14;619123;228;66937;-61
2023/04/11 04:55:08;;;;;;;;;;;;;;;24.69;39.99;96488.25;620111;227;63771;-61
2023/04/11 04:57:36;;;;;;;;;;;;;;;24.69;41.40;96491.75;619114;229;67431;-61
2023/04/11 05:00:10;;;;;;;;;;;;;;;24.70;44.39;96487.16;618978;228;67852;-61
2023/04/11 05:02:36;;;;;;;;;;;;;;;24.71;43.87;96483.36;616476;228;67090;-62
2023/04/11 05:05:04;;;;;;;;;;;;;;;24.71;43.44;96483.36;619956;228;64841;-62
2023/04/11 05:07:32;;;;;;;;;;;;;;;24.72;44.22;96482.28;618515;228;67775;-61
2023/04/11 05:10:00;;;;;;;;;;;;;;;24.72;43.34;96474.22;618146;228;62971;-63
2023/04/11 05:12:28;;;;;;;;;;;;;;;24.73;42.62;96481.95;619903;228;67466;-63
2023/04/11 05:14:57;;;;;;;;;;;;;;;24.73;45.70;96475.80;617693;227;43780;-61
2023/04/11 05:17:26;;;;;;;;;;;;;;;24.73;45.68;96470.42;621531;225;65755;-61
2023/04/11 05:19:54;;;;;;;;;;;;;;;24.74;43.98;96477.38;618561;228;65031;-61
2023/04/11 05:22:22;;;;;;;;;;;;;;;24.74;45.44;96480.84;620598;226;67611;-59
2023/04/11 05:24:50;;;;;;;;;;;;;;;24.74;45.54;96472.78;619039;228;65079;-60
2023/04/11 05:27:18;;;;;;;;;;;;;;;24.74;45.25;96467.41;619751;227;67224;-60
2023/04/11 05:29:46;;;;;;;;;;;;;;;24.75;44.69;96479.77;617625;229;64467;-60
2023/04/11 05:32:13;;;;;;;;;;;;;;;24.77;43.92;96482.13;618597;227;63738;-60
2023/04/11 05:34:51;;;;;;;;;;;;;;;24.76;44.56;96470.59;619059;229;67235;-60
2023/04/11 05:37:20;;;;;;;;;;;;;;;24.77;42.98;96471.37;619083;229;48365;-60
2023/04/11 05:39:48;;;;;;;;;;;;;;;24.77;41.90;96468.69;619091;229;65655;-60
2023/04/11 05:42:18;;;;;;;;;;;;;;;24.78;45.03;96467.61;618972;229;67217;-61
2023/04/11 05:44:46;;;;;;;;;;;;;;;24.79;45.17;96464.59;620063;227;65061;-62
2023/04/11 05:47:13;;;;;;;;;;;;;;;24.79;45.72;96463.80;609065;231;62810;-62
2023/04/11 05:49:42;;;;;;;;;;;;;;;24.79;46.19;96461.91;615428;228;68390;-62
2023/04/11 05:52:12;;;;;;;;;;;;;;;24.80;42.51;96454.66;619040;229;67222;-62
2023/04/11 05:54:39;;;;;;;;;;;;;;;24.84;39.32;96452.93;618980;229;66047;-62
2023/04/11 05:57:07;;;;;;;;;;;;;;;24.80;39.96;96449.29;618324;229;66997;-62
2023/04/11 05:59:35;;;;;;;;;;;;;;;24.79;41.01;96461.91;617510;229;66885;-63
2023/04/11 06:02:02;;;;;;;;;;;;;;;24.78;42.46;96459.55;618030;228;65039;-61
2023/04/11 06:04:30;;;;;;;;;;;;;;;24.77;42.14;96456.07;615382;229;65444;-63
2023/04/11 06:06:57;;;;;;;;;;;;;;;24.76;41.44;96456.37;612850;230;65034;-62
2023/04/11 06:09:25;;;;;;;;;;;;;;;24.76;40.82;96443.72;615282;230;62958;-64
2023/04/11 06:11:53;;;;;;;;;;;;;;;24.77;40.43;96460.62;613381;228;65034;-62
2023/04/11 06:14:20;;;;;;;;;;;;;;;24.78;40.78;96446.11;615824;230;64939;-63
2023/04/11 06:16:48;;;;;;;;;;;;;;;24.78;40.66;96449.58;613885;230;62978;-63
2023/04/11 06:19:15;;;;;;;;;;;;;;;24.78;38.80;96440.73;610623;230;67109;-62
2023/04/11 06:21:42;;;;;;;;;;;;;;;24.80;41.50;96446.60;613613;229;66934;-64
2023/04/11 06:24:10;;;;;;;;;;;;;;;24.81;38.94;96445.48;611798;230;65109;-63
2023/04/11 06:26:38;;;;;;;;;;;;;;;24.84;37.03;96444.86;611273;231;67254;-62
2023/04/11 06:29:06;;;;;;;;;;;;;;;24.86;41.68;96437.30;617315;228;66997;-64
2023/04/11 06:31:33;;;;;;;;;;;;;;;24.88;41.84;96445.84;611641;230;65001;-60
2023/04/11 06:34:01;;;;;;;;;;;;;;;24.89;43.00;96452.01;611188;232;67240;-59
2023/04/11 06:36:29;;;;;;;;;;;;;;;24.90;43.80;96443.63;610666;231;65022;-61
2023/04/11 06:38:56;;;;;;;;;;;;;;;24.95;44.39;96445.39;610896;232;62919;-60
2023/04/11 06:41:24;;;;;;;;;;;;;;;24.96;44.30;96458.53;611616;229;64936;-60
2023/04/11 06:43:51;;;;;;;;;;;;;;;24.99;43.38;96440.96;613714;230;64060;-60
2023/04/11 06:46:19;;;;;;;;;;;;;;;25.01;43.89;96446.83;613422;229;65036;-59
2023/04/11 06:48:46;;;;;;;;;;;;;;;25.05;42.88;96447.80;611099;232;66933;-60
2023/04/11 06:51:14;;;;;;;;;;;;;;;25.06;41.72;96452.06;611532;232;67208;-59
2023/04/11 06:53:41;;;;;;;;;;;;;;;25.09;42.58;96447.97;611054;232;62963;-59
2023/04/11 06:56:11;;;;;;;;;;;;;;;25.12;45.28;96450.03;613884;230;65628;-59
2023/04/11 06:58:38;;;;;;;;;;;;;;;25.12;43.03;96452.72;612633;230;66832;-60
2023/04/11 07:01:06;;;;;;;;;;;;;;;25.14;43.09;96455.89;611483;230;62988;-60
2023/04/11 07:03:33;;;;;;;;;;;;;;;25.16;43.77;96456.41;611483;230;67001;-60
2023/04/11 07:06:01;;;;;;;;;;;;;;;25.19;43.56;96455.79;611477;231;67063;-60
2023/04/11 07:08:28;;;;;;;;;;;;;;;25.17;42.49;96457.98;614559;230;62990;-60
2023/04/11 07:10:56;;;;;;;;;;;;;;;25.15;44.46;96462.88;612227;230;65281;-60
2023/04/11 07:13:23;;;;;;;;;;;;;;;25.13;40.85;96459.70;611618;230;66986;-60
2023/04/11 07:15:51;;;;;;;;;;;;;;;25.15;42.83;96460.19;611444;232;65094;-60
2023/04/11 07:18:20;;;;;;;;;;;;;;;25.15;43.79;96462.88;610735;232;67549;-60
2023/04/11 07:20:51;;;;;;;;;;;;;;;25.15;43.67;96468.26;610887;231;67756;-60
2023/04/11 07:23:20;;;;;;;;;;;;;;;25.16;40.60;96467.95;609359;228;65630;-60
2023/04/11 07:25:53;;;;;;;;;;;;;;;25.17;43.84;96458.77;615631;229;48370;-61
2023/04/11 07:28:21;;;;;;;;;;;;;;;25.19;44.73;96466.55;613387;227;67094;-59
2023/04/11 07:30:48;;;;;;;;;;;;;;;25.21;40.85;96469.72;611613;230;64977;-59
2023/04/11 07:33:16;;;;;;;;;;;;;;;25.22;41.90;96476.67;612121;230;67578;-58
2023/04/11 07:35:43;;;;;;;;;;;;;;;25.24;43.30;96471.78;614482;230;67211;-58
2023/04/11 07:38:11;;;;;;;;;;;;;;;25.24;41.01;96472.58;613716;230;65034;-58
2023/04/11 07:40:39;;;;;;;;;;;;;;;25.25;41.16;96473.36;612891;230;65018;-60
2023/04/11 07:43:06;;;;;;;;;;;;;;;25.28;42.51;96471.95;611066;231;67072;-59
2023/04/11 07:45:35;;;;;;;;;;;;;;;25.29;41.51;96471.65;612642;230;65128;-59
2023/04/11 07:48:02;;;;;;;;;;;;;;;25.29;39.43;96471.65;616402;228;68229;-59
2023/04/11 07:50:30;;;;;;;;;;;;;;;25.31;41.54;96474.80;616533;229;67069;-59
2023/04/11 07:52:57;;;;;;;;;;;;;;;25.34;37.90;96468.00;612072;230;65164;-59
2023/04/11 07:55:25;;;;;;;;;;;;;;;25.34;36.86;96463.41;611099;231;64927;-59
2023/04/11 07:57:52;;;;;;;;;;;;;;;25.36;37.16;96455.83;610872;231;64627;-59
2023/04/11 08:00:21;;;;;;;;;;;;;;;25.37;37.16;96457.44;614003;230;62890;-59
2023/04/11 08:02:49;;;;;;;;;;;;;;;25.39;42.21;96455.20;612623;230;67301;-60
2023/04/11 08:05:18;;;;;;;;;;;;;;;25.41;38.10;96452.21;611199;231;67399;-59
2023/04/11 08:07:45;;;;;;;;;;;;;;;25.42;40.79;96449.19;612947;230;62965;-59
2023/04/11 08:10:16;;;;;;;;;;;;;;;25.43;38.53;96445.41;614014;230;65068;-60
2023/04/11 08:12:43;;;;;;;;;;;;;;;25.46;37.46;96447.47;611998;229;66222;-60
2023/04/11 08:15:11;;;;;;;;;;;;;;;25.47;38.61;96438.28;619613;228;63792;-58
2023/04/11 08:17:39;;;;;;;;;;;;;;;25.49;41.63;96454.13;616500;229;67260;-60
2023/04/11 08:20:10;;;;;;;;;;;;;;;25.49;41.05;96435.30;614318;230;69165;-60
2023/04/11 08:22:39;;;;;;;;;;;;;;;25.50;37.66;96439.55;612911;230;62044;-60
2023/04/11 08:25:13;;;;;;;;;;;;;;;25.52;37.33;96431.19;611707;230;66972;-61
2023/04/11 08:27:38;;;;;;;;;;;;;;;25.54;37.21;96428.98;611984;230;67040;-61
2023/04/11 08:30:07;;;;;;;;;;;;;;;25.55;38.67;96420.58;611878;230;65039;-62
2023/04/11 08:32:34;;;;;;;;;;;;;;;25.55;41.65;96409.03;611449;232;65312;-60
2023/04/11 08:35:02;;;;;;;;;;;;;;;25.55;42.39;96400.95;611856;230;64941;-61
2023/04/11 08:37:30;;;;;;;;;;;;;;;25.57;38.68;96396.84;612662;230;63070;-62
2023/04/11 08:39:57;;;;;;;;;;;;;;;25.61;38.74;96391.62;614492;229;64959;-62
2023/04/11 08:42:26;;;;;;;;;;;;;;;25.64;37.69;96380.22;611526;231;64829;-59
2023/04/11 08:44:54;;;;;;;;;;;;;;;25.67;37.87;96374.20;611248;231;65076;-62
2023/04/11 08:47:22;;;;;;;;;;;;;;;25.70;39.95;96376.28;611392;231;64932;-59
2023/04/11 08:49:50;;;;;;;;;;;;;;;25.71;41.16;96371.69;611330;232;64819;-63
2023/04/11 08:52:20;;;;;;;;;;;;;;;25.72;39.10;96363.28;611846;231;65081;-61
2023/04/11 08:54:50;;;;;;;;;;;;;;;25.70;36.87;96368.21;611295;231;67269;-62
2023/04/11 08:57:24;;;;;;;;;;;;;;;25.68;36.84;96367.73;615331;230;67078;-61
2023/04/11 08:59:50;;;;;;;;;;;;;;;25.71;37.24;96369.00;612952;229;65000;-61
2023/04/11 09:02:18;;;;;;;;;;;;;;;25.72;36.92;96357.11;603926;230;63909;-61
2023/04/11 09:04:46;;;;;;;;;;;;;;;25.73;38.22;96351.42;612303;227;67015;-63
2023/04/11 09:07:15;;;;;;;;;;;;;;;25.74;38.55;96352.22;611403;230;65306;-60
2023/04/11 09:09:42;;;;;;;;;;;;;;;25.75;38.93;96351.09;611604;230;65071;-61
2023/04/11 09:12:10;;;;;;;;;;;;;;;25.76;40.04;96348.09;611499;231;66817;-62
2023/04/11 09:14:38;;;;;;;;;;;;;;;25.77;36.17;96346.98;610821;230;65138;-61
2023/04/11 09:17:12;;;;;;;;;;;;;;;25.79;38.08;96338.59;610790;231;67323;-61
2023/04/11 09:19:36;;;;;;;;;;;;;;;25.79;37.10;96342.08;611202;231;67214;-60
2023/04/11 09:22:18;;;;;;;;;;;;;;;;;;;;;
2023/04/11 09:24:40;;;;;;;;;;;;;;;25.77;41.68;96338.91;609231;230;47626;-61
2023/04/11 09:27:09;;;;;;;;;;;;;;;25.75;37.31;96327.66;610531;231;64870;-60
2023/04/11 09:29:40;;;;;;;;;;;;;;;25.75;40.93;96321.48;611365;231;65118;-62
2023/04/11 09:32:10;;;;;;;;;;;;;;;25.73;42.34;96319.13;608936;228;66623;-61
2023/04/11 09:34:37;;;;;;;;;;;;;;;25.72;42.32;96320.22;615298;228;66270;-60
2023/04/11 09:37:05;;;;;;;;;;;;;;;25.71;41.91;96328.63;613556;227;64590;-60
2023/04/11 09:39:32;;;;;;;;;;;;;;;25.71;43.07;96331.32;619268;228;67391;-60
2023/04/11 09:42:01;;;;;;;;;;;;;;;25.68;41.42;96317.39;608817;228;66213;-61
2023/04/11 09:44:37;;;;;;;;;;;;;;;25.69;41.85;96328.94;614976;228;65046;-61
2023/04/11 09:47:04;;;;;;;;;;;;;;;25.69;41.96;96326.25;611325;231;67412;-60
2023/04/11 09:49:33;;;;;;;;;;;;;;;25.68;41.77;96314.70;611714;230;67045;-61
2023/04/11 09:52:01;;;;;;;;;;;;;;;25.67;44.38;96313.13;611280;231;63212;-61
2023/04/11 09:54:30;;;;;;;;;;;;;;;25.66;42.90;96308.05;611612;230;67126;-63
2023/04/11 09:56:58;;;;;;;;;;;;;;;25.68;37.82;96303.15;611419;230;67068;-60
2023/04/11 09:59:26;;;;;;;;;;;;;;;25.70;40.68;96309.01;612544;230;63059;-60
2023/04/11 10:01:54;;;;;;;;;;;;;;;25.70;42.08;96298.25;614570;229;67121;-61
2023/04/11 10:04:21;;;;;;;;;;;;;;;25.69;38.57;96297.43;611957;230;66996;-61
2023/04/11 10:06:51;;;;;;;;;;;;;;;25.69;39.96;96297.43;611912;230;65090;-61
2023/04/11 10:09:19;;;;;;;;;;;;;;;25.71;42.10;96285.58;611867;230;64816;-62
2023/04/11 10:11:48;;;;;;;;;;;;;;;25.68;42.66;96287.00;611989;230;64837;-62
2023/04/11 10:14:24;;;;;;;;;;;;;;;25.69;41.34;96275.12;611551;231;65045;-63
2023/04/11 10:17:16;;;;;;;;;;;;;;;25.68;42.55;96284.31;610582;232;67320;-61
2023/04/11 10:19:48;;;;;;;;;;;;;;;25.69;39.87;96280.50;611292;230;67031;-61
2023/04/11 10:22:13;;;;;;;;;;;;;;;25.68;40.25;96271.64;611163;230;65092;-60
2023/04/11 10:24:42;;;;;;;;;;;;;;;25.68;42.66;96268.16;610552;230;67260;-63
2023/04/11 10:27:09;;;;;;;;;;;;;;;25.67;38.34;96277.33;619942;223;66912;-62
2023/04/11 10:29:47;;;;;;;;;;;;;;;25.67;41.86;96282.71;629270;225;65033;-62
2023/04/11 10:32:21;;;;;;;;;;;;;;;25.66;41.00;96276.55;627064;226;67216;-60
2023/04/11 10:34:54;;;;;;;;;;;;;;;25.66;42.50;96262.30;626516;225;67359;-62
2023/04/11 10:37:26;;;;;;;;;;;;;;;25.64;42.07;96264.52;626367;225;63049;-61
2023/04/11 10:40:08;;;;;;;;;;;;;;;25.62;42.42;96256.78;624958;226;67183;-61
2023/04/11 10:42:34;;;;;;;;;;;;;;;25.62;39.14;96258.69;625585;226;67159;-61
2023/04/11 10:45:20;;;;;;;;;;;;;;;25.61;42.33;96243.63;625770;226;63099;-61
2023/04/11 10:47:59;;;;;;;;;;;;;;;25.59;38.98;96248.53;626369;226;67290;-58
2023/04/11 10:50:28;;;;;;;;;;;;;;;25.59;41.48;96238.59;626814;225;66950;-59
2023/04/11 10:52:56;;;;;;;;;;;;;;;25.58;40.29;96236.20;625993;225;65029;-59
2023/04/11 10:55:31;;;;;;;;;;;;;;;25.57;35.75;96235.42;625842;226;66419;-59
2023/04/11 10:58:07;;;;;;;;;;;;;;;25.58;38.89;96233.52;625467;226;64732;-59
2023/04/11 11:00:51;;;;;;;;;;;;;;;25.59;41.15;96235.08;625829;226;62891;-60
2023/04/11 11:03:20;;;;;;;;;;;;;;;25.58;40.81;96222.75;625843;226;67172;-59
2023/04/11 11:05:48;;;;;;;;;;;;;;;25.57;42.17;96208.52;625784;226;66711;-58
2023/04/11 11:08:17;;;;;;;;;;;;;;;25.57;41.49;96207.73;626166;226;65060;-58
2023/04/11 11:10:45;;;;;;;;;;;;;;;25.56;40.44;96208.82;618709;226;64287;-59
2023/04/11 11:13:14;;;;;;;;;;;;;;;25.57;42.32;96202.34;626005;225;64781;-59
2023/04/11 11:15:43;;;;;;;;;;;;;;;25.56;38.43;96198.06;626310;226;66118;-59
2023/04/11 11:18:12;;;;;;;;;;;;;;;25.57;41.35;96183.52;625317;226;67198;-59
2023/04/11 11:20:40;;;;;;;;;;;;;;;25.57;43.01;96194.28;626234;226;67055;-59
2023/04/11 11:23:11;;;;;;;;;;;;;;;25.56;42.29;96188.08;629744;225;62631;-59
2023/04/11 11:25:38;;;;;;;;;;;;;;;25.57;42.26;96181.61;626742;226;67049;-59
2023/04/11 11:28:07;;;;;;;;;;;;;;;25.59;41.88;96173.20;626608;225;64633;-59
2023/04/11 11:30:35;;;;;;;;;;;;;;;25.59;42.09;96175.89;625893;226;62974;-59
2023/04/11 11:33:17;;;;;;;;;;;;;;;25.59;42.98;96179.39;625676;226;67306;-59
2023/04/11 11:35:54;;;;;;;;;;;;;;;25.59;41.94;96168.64;625796;226;67039;-59
2023/04/11 11:38:23;;;;;;;;;;;;;;;25.62;42.32;96175.27;625831;226;65191;-61
2023/04/11 11:40:51;;;;;;;;;;;;;;;25.63;43.12;96164.17;625782;226;64750;-59
2023/04/11 11:43:18;;;;;;;;;;;;;;;25.63;42.82;96163.39;625869;226;66752;-60
2023/04/11 11:45:46;;;;;;;;;;;;;;;25.64;43.31;96151.50;625881;226;62742;-60
2023/04/11 11:48:22;;;;;;;;;;;;;;;25.66;42.19;96149.30;626800;226;67223;-60
2023/04/11 11:51:01;;;;;;;;;;;;;;;25.66;43.39;96146.59;626718;225;67360;-60
2023/04/11 11:53:25;;;;;;;;;;;;;;;25.66;41.25;96146.59;626128;225;65063;-58
2023/04/11 11:55:55;;;;;;;;;;;;;;;25.67;44.38;96159.75;619409;226;67317;-57
2023/04/11 11:58:23;;;;;;;;;;;;;;;25.69;35.02;96151.34;618739;228;64945;-57
2023/04/11 12:00:51;;;;;;;;;;;;;;;25.72;40.66;96145.30;620159;228;62929;-57
2023/04/11 12:03:22;;;;;;;;;;;;;;;25.74;38.93;96145.78;618068;228;64954;-57
2023/04/11 12:05:52;;;;;;;;;;;;;;;25.76;41.48;96140.87;619630;228;67037;-59
2023/04/11 12:08:26;;;;;;;;;;;;;;;25.80;40.82;96127.55;619276;229;62648;-59
2023/04/11 12:10:50;;;;;;;;;;;;;;;25.83;42.45;96119.64;618911;229;64689;-60
2023/04/11 12:13:22;;;;;;;;;;;;;;;25.87;42.12;96112.51;619369;228;64871;-60
2023/04/11 12:15:51;;;;;;;;;;;;;;;25.87;41.77;96107.13;619219;229;65075;-60
2023/04/11 12:18:23;;;;;;;;;;;;;;;25.89;41.92;96107.59;619260;229;65283;-59
2023/04/11 12:20:50;;;;;;;;;;;;;;;25.90;41.46;96095.70;618795;228;65073;-59
2023/04/11 12:23:20;;;;;;;;;;;;;;;25.93;41.29;96107.73;618614;229;62703;-59
2023/04/11 12:25:47;;;;;;;;;;;;;;;25.91;37.04;96097.27;618162;229;64832;-57
2023/04/11 12:28:15;;;;;;;;;;;;;;;25.96;40.09;96095.52;616795;229;64563;-59
2023/04/11 12:30:42;;;;;;;;;;;;;;;25.98;41.02;96087.92;618942;226;63109;-58
2023/04/11 12:33:10;;;;;;;;;;;;;;;25.99;42.33;96090.27;619283;228;67379;-58
2023/04/11 12:35:37;;;;;;;;;;;;;;;26.02;41.53;96080.75;619302;229;66989;-58
2023/04/11 12:38:06;;;;;;;;;;;;;;;26.04;40.38;96086.61;618943;228;64865;-59
2023/04/11 12:40:34;;;;;;;;;;;;;;;26.05;41.28;96083.58;617739;229;67087;-59
2023/04/11 12:43:01;;;;;;;;;;;;;;;26.07;41.72;96072.49;619470;228;64911;-58
2023/04/11 12:45:29;;;;;;;;;;;;;;;26.07;40.99;96062.50;619704;229;63044;-58
2023/04/11 12:47:56;;;;;;;;;;;;;;;26.09;40.85;96046.03;619233;228;64981;-58
2023/04/11 12:50:24;;;;;;;;;;;;;;;26.09;40.79;96046.03;617746;229;66980;-58
2023/04/11 12:52:52;;;;;;;;;;;;;;;26.11;41.67;96041.12;619311;228;62823;-58
2023/04/11 12:55:20;;;;;;;;;;;;;;;26.10;40.45;96045.69;611693;229;65071;-60